sensor_id;sensor_type;location;lat;lon;timestamp;P1;durP1;ratioP1;P2;durP2;ratioP2
78666;SDS011;67983;59.830;30.198;2023-04-26T00:00:47;6.10;;;3.88;;
78666;SDS011;67983;59.830;30.198;2023-04-26T00:03:14;8.50;;;4.43;;
78666;SDS011;67983;59.830;30.198;2023-04-26T00:05:40;5.72;;;3.63;;
78666;SDS011;67983;59.830;30.198;2023-04-26T00:08:08;5.55;;;4.18;;
78666;SDS011;67983;59.830;30.198;2023-04-26T00:10:37;6.38;;;3.72;;
78666;SDS011;67983;59.830;30.198;2023-04-26T00:13:05;10.10;;;3.90;;
78666;SDS011;67983;59.830;30.198;2023-04-26T00:15:34;4.72;;;3.30;;
78666;SDS011;67983;59.830;30.198;2023-04-26T00:18:01;6.57;;;3.72;;
78666;SDS011;67983;59.830;30.198;2023-04-26T00:20:28;7.15;;;3.70;;
78666;SDS011;67983;59.830;30.198;2023-04-26T00:22:55;6.55;;;4.03;;
78666;SDS011;67983;59.830;30.198;2023-04-26T00:25:23;7.30;;;3.75;;
78666;SDS011;67983;59.830;30.198;2023-04-26T00:27:52;4.22;;;3.28;;
78666;SDS011;67983;59.830;30.198;2023-04-26T00:30:20;5.45;;;3.30;;
78666;SDS011;67983;59.830;30.198;2023-04-26T00:32:48;5.03;;;2.97;;
78666;SDS011;67983;59.830;30.198;2023-04-26T00:35:15;4.82;;;2.97;;
78666;SDS011;67983;59.830;30.198;2023-04-26T00:37:42;3.22;;;2.63;;
78666;SDS011;67983;59.830;30.198;2023-04-26T00:40:14;4.50;;;2.75;;
78666;SDS011;67983;59.830;30.198;2023-04-26T00:42:45;5.05;;;2.97;;
78666;SDS011;67983;59.830;30.198;2023-04-26T00:45:12;9.05;;;3.58;;
78666;SDS011;67983;59.830;30.198;2023-04-26T00:47:39;3.25;;;2.95;;
78666;SDS011;67983;59.830;30.198;2023-04-26T00:50:10;5.40;;;3.58;;
78666;SDS011;67983;59.830;30.198;2023-04-26T00:52:37;5.10;;;3.20;;
78666;SDS011;67983;59.830;30.198;2023-04-26T00:55:05;4.80;;;2.90;;
78666;SDS011;67983;59.830;30.198;2023-04-26T00:57:34;6.55;;;3.83;;
78666;SDS011;67983;59.830;30.198;2023-04-26T01:00:03;10.07;;;3.60;;
78666;SDS011;67983;59.830;30.198;2023-04-26T01:02:31;6.38;;;4.00;;
78666;SDS011;67983;59.830;30.198;2023-04-26T01:04:58;8.18;;;4.00;;
78666;SDS011;67983;59.830;30.198;2023-04-26T01:07:26;7.10;;;3.90;;
78666;SDS011;67983;59.830;30.198;2023-04-26T01:09:53;4.93;;;3.33;;
78666;SDS011;67983;59.830;30.198;2023-04-26T01:12:24;7.65;;;3.70;;
78666;SDS011;67983;59.830;30.198;2023-04-26T01:14:53;6.18;;;4.00;;
78666;SDS011;67983;59.830;30.198;2023-04-26T01:17:21;8.85;;;4.03;;
78666;SDS011;67983;59.830;30.198;2023-04-26T01:19:49;5.65;;;3.63;;
78666;SDS011;67983;59.830;30.198;2023-04-26T01:22:17;5.57;;;3.92;;
78666;SDS011;67983;59.830;30.198;2023-04-26T01:24:47;6.60;;;4.03;;
78666;SDS011;67983;59.830;30.198;2023-04-26T01:27:17;6.45;;;4.13;;
78666;SDS011;67983;59.830;30.198;2023-04-26T01:29:46;6.65;;;3.92;;
78666;SDS011;67983;59.830;30.198;2023-04-26T01:32:14;5.90;;;3.67;;
78666;SDS011;67983;59.830;30.198;2023-04-26T01:34:42;7.03;;;4.35;;
78666;SDS011;67983;59.830;30.198;2023-04-26T01:37:11;7.57;;;4.60;;
78666;SDS011;67983;59.830;30.198;2023-04-26T01:39:38;6.93;;;4.30;;
78666;SDS011;67983;59.830;30.198;2023-04-26T01:42:07;6.35;;;3.88;;
78666;SDS011;67983;59.830;30.198;2023-04-26T01:44:33;5.60;;;3.95;;
78666;SDS011;67983;59.830;30.198;2023-04-26T01:47:00;6.00;;;3.55;;
78666;SDS011;67983;59.830;30.198;2023-04-26T01:49:28;6.50;;;3.90;;
78666;SDS011;67983;59.830;30.198;2023-04-26T01:51:56;6.45;;;4.20;;
78666;SDS011;67983;59.830;30.198;2023-04-26T01:54:27;7.40;;;3.60;;
78666;SDS011;67983;59.830;30.198;2023-04-26T01:56:54;5.82;;;3.95;;
78666;SDS011;67983;59.830;30.198;2023-04-26T01:59:22;8.00;;;4.50;;
78666;SDS011;67983;59.830;30.198;2023-04-26T02:01:49;8.85;;;4.00;;
78666;SDS011;67983;59.830;30.198;2023-04-26T02:04:16;6.25;;;4.40;;
78666;SDS011;67983;59.830;30.198;2023-04-26T02:06:43;6.30;;;3.67;;
78666;SDS011;67983;59.830;30.198;2023-04-26T02:09:12;5.18;;;3.53;;
78666;SDS011;67983;59.830;30.198;2023-04-26T02:11:41;5.18;;;3.67;;
78666;SDS011;67983;59.830;30.198;2023-04-26T02:14:08;7.15;;;4.47;;
78666;SDS011;67983;59.830;30.198;2023-04-26T02:16:37;4.38;;;3.35;;
78666;SDS011;67983;59.830;30.198;2023-04-26T02:19:05;8.77;;;4.13;;
78666;SDS011;67983;59.830;30.198;2023-04-26T02:21:49;8.35;;;4.43;;
78666;SDS011;67983;59.830;30.198;2023-04-26T02:24:18;5.78;;;4.13;;
78666;SDS011;67983;59.830;30.198;2023-04-26T02:26:46;10.98;;;4.80;;
78666;SDS011;67983;59.830;30.198;2023-04-26T02:29:14;6.20;;;4.25;;
78666;SDS011;67983;59.830;30.198;2023-04-26T02:31:43;7.00;;;4.63;;
78666;SDS011;67983;59.830;30.198;2023-04-26T02:34:11;7.72;;;4.45;;
78666;SDS011;67983;59.830;30.198;2023-04-26T02:36:39;10.73;;;4.70;;
78666;SDS011;67983;59.830;30.198;2023-04-26T02:39:06;9.57;;;5.57;;
78666;SDS011;67983;59.830;30.198;2023-04-26T02:41:33;7.45;;;5.35;;
78666;SDS011;67983;59.830;30.198;2023-04-26T02:44:01;7.45;;;4.90;;
78666;SDS011;67983;59.830;30.198;2023-04-26T02:46:27;5.88;;;4.07;;
78666;SDS011;67983;59.830;30.198;2023-04-26T02:48:56;9.10;;;5.22;;
78666;SDS011;67983;59.830;30.198;2023-04-26T02:51:26;7.53;;;4.65;;
78666;SDS011;67983;59.830;30.198;2023-04-26T02:53:53;9.02;;;4.95;;
78666;SDS011;67983;59.830;30.198;2023-04-26T02:56:20;7.43;;;4.70;;
78666;SDS011;67983;59.830;30.198;2023-04-26T02:58:48;5.88;;;3.70;;
78666;SDS011;67983;59.830;30.198;2023-04-26T03:01:15;8.20;;;5.32;;
78666;SDS011;67983;59.830;30.198;2023-04-26T03:03:43;7.38;;;5.10;;
78666;SDS011;67983;59.830;30.198;2023-04-26T03:06:11;11.85;;;5.78;;
78666;SDS011;67983;59.830;30.198;2023-04-26T03:08:38;12.52;;;6.07;;
78666;SDS011;67983;59.830;30.198;2023-04-26T03:11:06;8.65;;;5.93;;
78666;SDS011;67983;59.830;30.198;2023-04-26T03:13:35;11.68;;;6.50;;
78666;SDS011;67983;59.830;30.198;2023-04-26T03:16:02;11.27;;;6.57;;
78666;SDS011;67983;59.830;30.198;2023-04-26T03:18:30;11.35;;;5.82;;
78666;SDS011;67983;59.830;30.198;2023-04-26T03:20:59;9.23;;;5.85;;
78666;SDS011;67983;59.830;30.198;2023-04-26T03:23:30;15.15;;;5.82;;
78666;SDS011;67983;59.830;30.198;2023-04-26T03:25:57;10.13;;;6.07;;
78666;SDS011;67983;59.830;30.198;2023-04-26T03:28:26;8.25;;;5.25;;
78666;SDS011;67983;59.830;30.198;2023-04-26T03:30:56;9.63;;;6.18;;
78666;SDS011;67983;59.830;30.198;2023-04-26T03:33:24;7.45;;;5.07;;
78666;SDS011;67983;59.830;30.198;2023-04-26T03:35:52;8.90;;;5.57;;
78666;SDS011;67983;59.830;30.198;2023-04-26T03:38:18;10.80;;;6.15;;
78666;SDS011;67983;59.830;30.198;2023-04-26T03:40:47;9.93;;;5.20;;
78666;SDS011;67983;59.830;30.198;2023-04-26T03:43:15;10.15;;;5.72;;
78666;SDS011;67983;59.830;30.198;2023-04-26T03:45:45;14.80;;;6.50;;
78666;SDS011;67983;59.830;30.198;2023-04-26T03:48:14;7.82;;;5.53;;
78666;SDS011;67983;59.830;30.198;2023-04-26T03:50:44;10.98;;;5.28;;
78666;SDS011;67983;59.830;30.198;2023-04-26T03:53:11;12.85;;;6.50;;
78666;SDS011;67983;59.830;30.198;2023-04-26T03:55:38;9.32;;;4.97;;
78666;SDS011;67983;59.830;30.198;2023-04-26T03:58:07;8.80;;;5.50;;
78666;SDS011;67983;59.830;30.198;2023-04-26T04:00:35;10.82;;;5.88;;
78666;SDS011;67983;59.830;30.198;2023-04-26T04:03:04;6.63;;;4.75;;
78666;SDS011;67983;59.830;30.198;2023-04-26T04:05:33;6.65;;;4.70;;
78666;SDS011;67983;59.830;30.198;2023-04-26T04:10:30;6.90;;;4.55;;
78666;SDS011;67983;59.830;30.198;2023-04-26T04:12:57;9.77;;;5.13;;
78666;SDS011;67983;59.830;30.198;2023-04-26T04:15:26;10.57;;;6.82;;
78666;SDS011;67983;59.830;30.198;2023-04-26T04:17:54;9.50;;;5.50;;
78666;SDS011;67983;59.830;30.198;2023-04-26T04:20:23;10.80;;;5.70;;
78666;SDS011;67983;59.830;30.198;2023-04-26T04:22:52;11.43;;;5.78;;
78666;SDS011;67983;59.830;30.198;2023-04-26T04:25:19;9.02;;;4.63;;
78666;SDS011;67983;59.830;30.198;2023-04-26T04:27:47;11.25;;;4.45;;
78666;SDS011;67983;59.830;30.198;2023-04-26T04:30:15;9.65;;;5.50;;
78666;SDS011;67983;59.830;30.198;2023-04-26T04:32:45;9.35;;;5.10;;
78666;SDS011;67983;59.830;30.198;2023-04-26T04:35:12;9.80;;;5.57;;
78666;SDS011;67983;59.830;30.198;2023-04-26T04:37:42;11.02;;;5.43;;
78666;SDS011;67983;59.830;30.198;2023-04-26T04:40:10;11.27;;;5.65;;
78666;SDS011;67983;59.830;30.198;2023-04-26T04:42:43;9.73;;;5.20;;
78666;SDS011;67983;59.830;30.198;2023-04-26T04:45:15;11.68;;;5.25;;
78666;SDS011;67983;59.830;30.198;2023-04-26T04:47:44;8.10;;;5.03;;
78666;SDS011;67983;59.830;30.198;2023-04-26T04:50:13;12.55;;;6.00;;
78666;SDS011;67983;59.830;30.198;2023-04-26T04:52:41;9.15;;;5.50;;
78666;SDS011;67983;59.830;30.198;2023-04-26T04:55:09;10.45;;;5.60;;
78666;SDS011;67983;59.830;30.198;2023-04-26T04:57:37;8.60;;;5.05;;
78666;SDS011;67983;59.830;30.198;2023-04-26T05:00:07;11.00;;;5.88;;
78666;SDS011;67983;59.830;30.198;2023-04-26T05:02:46;13.40;;;6.72;;
78666;SDS011;67983;59.830;30.198;2023-04-26T05:05:14;8.65;;;6.40;;
78666;SDS011;67983;59.830;30.198;2023-04-26T05:07:42;9.98;;;6.53;;
78666;SDS011;67983;59.830;30.198;2023-04-26T05:10:09;13.13;;;5.50;;
78666;SDS011;67983;59.830;30.198;2023-04-26T05:12:38;11.65;;;5.82;;
78666;SDS011;67983;59.830;30.198;2023-04-26T05:15:06;10.15;;;4.88;;
78666;SDS011;67983;59.830;30.198;2023-04-26T05:17:33;17.55;;;7.20;;
78666;SDS011;67983;59.830;30.198;2023-04-26T05:20:13;12.85;;;6.47;;
78666;SDS011;67983;59.830;30.198;2023-04-26T05:22:41;13.77;;;5.32;;
78666;SDS011;67983;59.830;30.198;2023-04-26T05:25:09;8.45;;;5.10;;
78666;SDS011;67983;59.830;30.198;2023-04-26T05:27:36;17.35;;;7.38;;
78666;SDS011;67983;59.830;30.198;2023-04-26T05:30:18;10.30;;;5.10;;
78666;SDS011;67983;59.830;30.198;2023-04-26T05:33:05;10.32;;;5.90;;
78666;SDS011;67983;59.830;30.198;2023-04-26T05:35:40;11.88;;;6.63;;
78666;SDS011;67983;59.830;30.198;2023-04-26T05:38:09;8.20;;;5.38;;
78666;SDS011;67983;59.830;30.198;2023-04-26T05:40:36;7.38;;;4.95;;
78666;SDS011;67983;59.830;30.198;2023-04-26T05:43:04;11.25;;;5.75;;
78666;SDS011;67983;59.830;30.198;2023-04-26T05:45:31;11.15;;;6.38;;
78666;SDS011;67983;59.830;30.198;2023-04-26T05:47:59;7.60;;;5.63;;
78666;SDS011;67983;59.830;30.198;2023-04-26T05:50:26;8.18;;;5.13;;
78666;SDS011;67983;59.830;30.198;2023-04-26T05:52:54;8.77;;;5.32;;
78666;SDS011;67983;59.830;30.198;2023-04-26T05:55:22;12.77;;;6.25;;
78666;SDS011;67983;59.830;30.198;2023-04-26T05:57:50;9.90;;;6.85;;
78666;SDS011;67983;59.830;30.198;2023-04-26T06:00:18;14.65;;;6.13;;
78666;SDS011;67983;59.830;30.198;2023-04-26T06:02:47;11.55;;;5.43;;
78666;SDS011;67983;59.830;30.198;2023-04-26T06:05:16;14.18;;;6.32;;
78666;SDS011;67983;59.830;30.198;2023-04-26T06:07:47;16.23;;;7.22;;
78666;SDS011;67983;59.830;30.198;2023-04-26T06:10:21;13.82;;;6.35;;
78666;SDS011;67983;59.830;30.198;2023-04-26T06:12:48;15.43;;;7.82;;
78666;SDS011;67983;59.830;30.198;2023-04-26T06:15:16;14.73;;;5.93;;
78666;SDS011;67983;59.830;30.198;2023-04-26T06:17:45;9.10;;;5.22;;
78666;SDS011;67983;59.830;30.198;2023-04-26T06:20:12;10.20;;;5.40;;
78666;SDS011;67983;59.830;30.198;2023-04-26T06:22:39;10.48;;;4.95;;
78666;SDS011;67983;59.830;30.198;2023-04-26T06:25:07;6.97;;;4.57;;
78666;SDS011;67983;59.830;30.198;2023-04-26T06:27:38;7.53;;;3.85;;
78666;SDS011;67983;59.830;30.198;2023-04-26T06:30:06;10.60;;;4.32;;
78666;SDS011;67983;59.830;30.198;2023-04-26T06:32:37;7.40;;;4.40;;
78666;SDS011;67983;59.830;30.198;2023-04-26T06:35:05;16.50;;;5.75;;
78666;SDS011;67983;59.830;30.198;2023-04-26T06:37:34;10.60;;;4.50;;
78666;SDS011;67983;59.830;30.198;2023-04-26T06:40:04;9.45;;;4.40;;
78666;SDS011;67983;59.830;30.198;2023-04-26T06:42:32;10.57;;;4.40;;
78666;SDS011;67983;59.830;30.198;2023-04-26T06:45:24;9.95;;;4.00;;
78666;SDS011;67983;59.830;30.198;2023-04-26T06:47:52;13.00;;;4.03;;
78666;SDS011;67983;59.830;30.198;2023-04-26T06:50:22;8.93;;;4.07;;
78666;SDS011;67983;59.830;30.198;2023-04-26T06:52:50;8.93;;;4.53;;
78666;SDS011;67983;59.830;30.198;2023-04-26T06:55:18;4.95;;;3.30;;
78666;SDS011;67983;59.830;30.198;2023-04-26T06:57:45;4.97;;;3.40;;
78666;SDS011;67983;59.830;30.198;2023-04-26T07:00:13;7.75;;;4.05;;
78666;SDS011;67983;59.830;30.198;2023-04-26T07:02:44;7.68;;;3.67;;
78666;SDS011;67983;59.830;30.198;2023-04-26T07:05:11;5.63;;;3.17;;
78666;SDS011;67983;59.830;30.198;2023-04-26T07:07:41;5.82;;;3.28;;
78666;SDS011;67983;59.830;30.198;2023-04-26T07:10:08;5.63;;;3.10;;
78666;SDS011;67983;59.830;30.198;2023-04-26T07:12:36;8.00;;;4.35;;
78666;SDS011;67983;59.830;30.198;2023-04-26T07:15:04;5.88;;;3.58;;
78666;SDS011;67983;59.830;30.198;2023-04-26T07:17:34;7.47;;;3.70;;
78666;SDS011;67983;59.830;30.198;2023-04-26T07:20:03;7.40;;;4.20;;
78666;SDS011;67983;59.830;30.198;2023-04-26T07:22:32;5.05;;;3.67;;
78666;SDS011;67983;59.830;30.198;2023-04-26T07:24:58;5.45;;;3.17;;
78666;SDS011;67983;59.830;30.198;2023-04-26T07:27:26;5.85;;;3.80;;
78666;SDS011;67983;59.830;30.198;2023-04-26T07:29:53;5.55;;;3.38;;
78666;SDS011;67983;59.830;30.198;2023-04-26T07:32:23;4.63;;;3.08;;
78666;SDS011;67983;59.830;30.198;2023-04-26T07:34:50;6.97;;;3.15;;
78666;SDS011;67983;59.830;30.198;2023-04-26T07:37:19;5.50;;;3.20;;
78666;SDS011;67983;59.830;30.198;2023-04-26T07:39:46;3.83;;;3.00;;
78666;SDS011;67983;59.830;30.198;2023-04-26T07:42:13;4.93;;;2.92;;
78666;SDS011;67983;59.830;30.198;2023-04-26T07:44:41;6.18;;;3.25;;
78666;SDS011;67983;59.830;30.198;2023-04-26T07:47:12;5.03;;;3.35;;
78666;SDS011;67983;59.830;30.198;2023-04-26T07:49:39;7.45;;;3.15;;
78666;SDS011;67983;59.830;30.198;2023-04-26T07:52:07;6.20;;;2.88;;
78666;SDS011;67983;59.830;30.198;2023-04-26T07:55:01;8.45;;;3.00;;
78666;SDS011;67983;59.830;30.198;2023-04-26T07:57:31;5.65;;;3.33;;
78666;SDS011;67983;59.830;30.198;2023-04-26T07:59:58;9.25;;;4.38;;
78666;SDS011;67983;59.830;30.198;2023-04-26T08:02:25;6.47;;;3.20;;
78666;SDS011;67983;59.830;30.198;2023-04-26T08:04:52;5.07;;;2.58;;
78666;SDS011;67983;59.830;30.198;2023-04-26T08:07:23;4.25;;;2.65;;
78666;SDS011;67983;59.830;30.198;2023-04-26T08:09:51;4.32;;;2.60;;
78666;SDS011;67983;59.830;30.198;2023-04-26T08:12:19;3.83;;;2.58;;
78666;SDS011;67983;59.830;30.198;2023-04-26T08:14:46;11.25;;;10.05;;
78666;SDS011;67983;59.830;30.198;2023-04-26T08:17:14;4.82;;;3.20;;
78666;SDS011;67983;59.830;30.198;2023-04-26T08:19:42;6.35;;;2.70;;
78666;SDS011;67983;59.830;30.198;2023-04-26T08:22:11;5.20;;;2.60;;
78666;SDS011;67983;59.830;30.198;2023-04-26T08:24:38;7.13;;;3.30;;
78666;SDS011;67983;59.830;30.198;2023-04-26T08:27:06;3.88;;;2.33;;
78666;SDS011;67983;59.830;30.198;2023-04-26T08:29:35;6.45;;;2.60;;
78666;SDS011;67983;59.830;30.198;2023-04-26T08:32:02;6.68;;;2.50;;
78666;SDS011;67983;59.830;30.198;2023-04-26T08:34:29;4.60;;;2.28;;
78666;SDS011;67983;59.830;30.198;2023-04-26T08:36:56;4.72;;;2.40;;
78666;SDS011;67983;59.830;30.198;2023-04-26T08:39:25;4.20;;;2.38;;
78666;SDS011;67983;59.830;30.198;2023-04-26T08:41:54;4.28;;;2.53;;
78666;SDS011;67983;59.830;30.198;2023-04-26T08:44:23;5.22;;;2.65;;
78666;SDS011;67983;59.830;30.198;2023-04-26T08:46:54;5.25;;;3.13;;
78666;SDS011;67983;59.830;30.198;2023-04-26T08:49:30;3.75;;;2.25;;
78666;SDS011;67983;59.830;30.198;2023-04-26T08:52:06;6.35;;;3.90;;
78666;SDS011;67983;59.830;30.198;2023-04-26T08:54:35;6.38;;;2.40;;
78666;SDS011;67983;59.830;30.198;2023-04-26T08:57:03;5.07;;;2.35;;
78666;SDS011;67983;59.830;30.198;2023-04-26T08:59:32;6.95;;;2.53;;
78666;SDS011;67983;59.830;30.198;2023-04-26T09:02:01;4.55;;;2.63;;
78666;SDS011;67983;59.830;30.198;2023-04-26T09:04:33;4.93;;;2.33;;
78666;SDS011;67983;59.830;30.198;2023-04-26T09:07:01;3.60;;;2.47;;
78666;SDS011;67983;59.830;30.198;2023-04-26T09:09:30;3.80;;;2.38;;
78666;SDS011;67983;59.830;30.198;2023-04-26T09:12:03;4.63;;;2.40;;
78666;SDS011;67983;59.830;30.198;2023-04-26T09:14:30;4.68;;;2.47;;
78666;SDS011;67983;59.830;30.198;2023-04-26T09:16:57;5.47;;;2.33;;
78666;SDS011;67983;59.830;30.198;2023-04-26T09:19:35;5.05;;;2.70;;
78666;SDS011;67983;59.830;30.198;2023-04-26T09:22:04;5.20;;;3.70;;
78666;SDS011;67983;59.830;30.198;2023-04-26T09:24:46;5.68;;;3.20;;
78666;SDS011;67983;59.830;30.198;2023-04-26T09:27:14;6.07;;;3.75;;
78666;SDS011;67983;59.830;30.198;2023-04-26T09:29:55;4.97;;;2.75;;
78666;SDS011;67983;59.830;30.198;2023-04-26T09:32:24;10.10;;;3.85;;
78666;SDS011;67983;59.830;30.198;2023-04-26T09:34:58;7.60;;;3.90;;
78666;SDS011;67983;59.830;30.198;2023-04-26T09:37:25;8.25;;;4.32;;
78666;SDS011;67983;59.830;30.198;2023-04-26T09:39:52;8.73;;;4.63;;
78666;SDS011;67983;59.830;30.198;2023-04-26T09:42:21;7.40;;;4.50;;
78666;SDS011;67983;59.830;30.198;2023-04-26T09:44:48;8.75;;;5.70;;
78666;SDS011;67983;59.830;30.198;2023-04-26T09:47:16;10.55;;;4.68;;
78666;SDS011;67983;59.830;30.198;2023-04-26T09:49:44;7.20;;;4.63;;
78666;SDS011;67983;59.830;30.198;2023-04-26T09:52:14;6.13;;;3.22;;
78666;SDS011;67983;59.830;30.198;2023-04-26T09:54:44;7.32;;;3.00;;
78666;SDS011;67983;59.830;30.198;2023-04-26T09:57:14;4.03;;;2.53;;
78666;SDS011;67983;59.830;30.198;2023-04-26T09:59:43;6.65;;;3.65;;
78666;SDS011;67983;59.830;30.198;2023-04-26T10:02:15;6.35;;;3.28;;
78666;SDS011;67983;59.830;30.198;2023-04-26T10:04:44;4.07;;;3.10;;
78666;SDS011;67983;59.830;30.198;2023-04-26T10:07:15;6.72;;;3.20;;
78666;SDS011;67983;59.830;30.198;2023-04-26T10:09:44;5.18;;;3.50;;
78666;SDS011;67983;59.830;30.198;2023-04-26T10:12:14;5.35;;;3.40;;
78666;SDS011;67983;59.830;30.198;2023-04-26T10:14:42;5.55;;;2.88;;
78666;SDS011;67983;59.830;30.198;2023-04-26T10:17:11;8.88;;;3.30;;
78666;SDS011;67983;59.830;30.198;2023-04-26T10:19:39;6.43;;;3.10;;
78666;SDS011;67983;59.830;30.198;2023-04-26T10:22:10;4.22;;;2.85;;
78666;SDS011;67983;59.830;30.198;2023-04-26T10:24:46;7.85;;;2.95;;
78666;SDS011;67983;59.830;30.198;2023-04-26T10:27:15;4.10;;;3.28;;
78666;SDS011;67983;59.830;30.198;2023-04-26T10:36:00;8.82;;;3.15;;
78666;SDS011;67983;59.830;30.198;2023-04-26T10:38:32;5.00;;;1.98;;
78666;SDS011;67983;59.830;30.198;2023-04-26T10:47:05;3.80;;;2.10;;
78666;SDS011;67983;59.830;30.198;2023-04-26T10:49:44;5.38;;;2.22;;
78666;SDS011;67983;59.830;30.198;2023-04-26T10:52:13;3.72;;;2.10;;
78666;SDS011;67983;59.830;30.198;2023-04-26T10:54:47;3.65;;;2.17;;
78666;SDS011;67983;59.830;30.198;2023-04-26T10:57:20;5.22;;;2.17;;
78666;SDS011;67983;59.830;30.198;2023-04-26T11:02:52;3.45;;;2.38;;
78666;SDS011;67983;59.830;30.198;2023-04-26T11:05:33;2.55;;;2.05;;
78666;SDS011;67983;59.830;30.198;2023-04-26T11:08:32;2.70;;;1.73;;
78666;SDS011;67983;59.830;30.198;2023-04-26T11:11:06;4.03;;;2.03;;
78666;SDS011;67983;59.830;30.198;2023-04-26T11:13:37;7.85;;;2.60;;
78666;SDS011;67983;59.830;30.198;2023-04-26T11:21:00;2.63;;;2.00;;
78666;SDS011;67983;59.830;30.198;2023-04-26T11:23:28;2.58;;;2.13;;
78666;SDS011;67983;59.830;30.198;2023-04-26T11:26:02;3.58;;;2.10;;
78666;SDS011;67983;59.830;30.198;2023-04-26T11:28:33;4.30;;;2.50;;
78666;SDS011;67983;59.830;30.198;2023-04-26T11:31:04;5.65;;;2.50;;
78666;SDS011;67983;59.830;30.198;2023-04-26T11:33:32;6.10;;;2.40;;
78666;SDS011;67983;59.830;30.198;2023-04-26T11:36:00;3.50;;;2.15;;
78666;SDS011;67983;59.830;30.198;2023-04-26T11:38:30;6.25;;;2.60;;
78666;SDS011;67983;59.830;30.198;2023-04-26T11:40:59;5.25;;;2.50;;
78666;SDS011;67983;59.830;30.198;2023-04-26T11:43:33;6.70;;;2.88;;
78666;SDS011;67983;59.830;30.198;2023-04-26T11:46:02;2.85;;;2.10;;
78666;SDS011;67983;59.830;30.198;2023-04-26T11:48:32;7.32;;;2.97;;
78666;SDS011;67983;59.830;30.198;2023-04-26T11:51:03;3.03;;;2.28;;
78666;SDS011;67983;59.830;30.198;2023-04-26T11:53:35;5.25;;;2.25;;
78666;SDS011;67983;59.830;30.198;2023-04-26T11:56:03;5.13;;;2.42;;
78666;SDS011;67983;59.830;30.198;2023-04-26T11:58:31;3.80;;;2.30;;
78666;SDS011;67983;59.830;30.198;2023-04-26T12:00:58;4.05;;;2.13;;
78666;SDS011;67983;59.830;30.198;2023-04-26T12:03:29;3.92;;;1.80;;
78666;SDS011;67983;59.830;30.198;2023-04-26T12:05:57;4.53;;;2.08;;
78666;SDS011;67983;59.830;30.198;2023-04-26T12:08:26;2.28;;;1.80;;
78666;SDS011;67983;59.830;30.198;2023-04-26T12:10:58;2.20;;;1.95;;
78666;SDS011;67983;59.830;30.198;2023-04-26T12:13:50;4.10;;;2.10;;
78666;SDS011;67983;59.830;30.198;2023-04-26T12:16:21;5.18;;;3.63;;
78666;SDS011;67983;59.830;30.198;2023-04-26T12:18:50;5.15;;;2.50;;
78666;SDS011;67983;59.830;30.198;2023-04-26T12:21:21;2.40;;;1.60;;
78666;SDS011;67983;59.830;30.198;2023-04-26T12:23:50;3.22;;;1.73;;
78666;SDS011;67983;59.830;30.198;2023-04-26T12:26:18;2.75;;;1.88;;
78666;SDS011;67983;59.830;30.198;2023-04-26T12:28:46;2.33;;;1.67;;
78666;SDS011;67983;59.830;30.198;2023-04-26T12:31:13;2.47;;;1.80;;
78666;SDS011;67983;59.830;30.198;2023-04-26T12:33:40;2.92;;;1.77;;
78666;SDS011;67983;59.830;30.198;2023-04-26T12:36:09;3.47;;;2.17;;
78666;SDS011;67983;59.830;30.198;2023-04-26T12:38:37;2.40;;;1.92;;
78666;SDS011;67983;59.830;30.198;2023-04-26T12:41:06;3.92;;;1.75;;
78666;SDS011;67983;59.830;30.198;2023-04-26T12:43:32;3.58;;;1.77;;
78666;SDS011;67983;59.830;30.198;2023-04-26T12:46:02;2.95;;;2.03;;
78666;SDS011;67983;59.830;30.198;2023-04-26T12:48:31;4.65;;;1.90;;
78666;SDS011;67983;59.830;30.198;2023-04-26T12:50:58;2.55;;;1.70;;
78666;SDS011;67983;59.830;30.198;2023-04-26T12:53:26;3.88;;;1.77;;
78666;SDS011;67983;59.830;30.198;2023-04-26T12:55:55;2.78;;;1.90;;
78666;SDS011;67983;59.830;30.198;2023-04-26T12:58:22;3.67;;;1.73;;
78666;SDS011;67983;59.830;30.198;2023-04-26T13:00:50;2.95;;;1.65;;
78666;SDS011;67983;59.830;30.198;2023-04-26T13:03:34;3.38;;;1.60;;
78666;SDS011;67983;59.830;30.198;2023-04-26T13:06:12;2.28;;;1.73;;
78666;SDS011;67983;59.830;30.198;2023-04-26T13:08:40;1.77;;;1.45;;
78666;SDS011;67983;59.830;30.198;2023-04-26T13:11:07;3.13;;;1.75;;
78666;SDS011;67983;59.830;30.198;2023-04-26T13:13:34;1.60;;;1.33;;
78666;SDS011;67983;59.830;30.198;2023-04-26T13:16:03;2.00;;;1.45;;
78666;SDS011;67983;59.830;30.198;2023-04-26T13:20:59;2.47;;;1.63;;
78666;SDS011;67983;59.830;30.198;2023-04-26T13:23:27;2.40;;;1.58;;
78666;SDS011;67983;59.830;30.198;2023-04-26T13:25:55;2.58;;;1.52;;
78666;SDS011;67983;59.830;30.198;2023-04-26T13:28:26;1.90;;;1.33;;
78666;SDS011;67983;59.830;30.198;2023-04-26T13:30:54;2.83;;;1.77;;
78666;SDS011;67983;59.830;30.198;2023-04-26T13:33:21;2.95;;;1.60;;
78666;SDS011;67983;59.830;30.198;2023-04-26T13:35:50;2.00;;;1.60;;
78666;SDS011;67983;59.830;30.198;2023-04-26T13:38:19;2.20;;;1.50;;
78666;SDS011;67983;59.830;30.198;2023-04-26T13:40:47;6.00;;;1.48;;
78666;SDS011;67983;59.830;30.198;2023-04-26T13:43:15;2.40;;;1.45;;
78666;SDS011;67983;59.830;30.198;2023-04-26T13:45:44;2.35;;;1.60;;
78666;SDS011;67983;59.830;30.198;2023-04-26T13:48:11;1.92;;;1.58;;
78666;SDS011;67983;59.830;30.198;2023-04-26T13:50:38;2.90;;;1.73;;
78666;SDS011;67983;59.830;30.198;2023-04-26T13:53:05;3.22;;;1.67;;
78666;SDS011;67983;59.830;30.198;2023-04-26T13:55:32;2.95;;;1.60;;
78666;SDS011;67983;59.830;30.198;2023-04-26T13:58:00;3.05;;;1.45;;
78666;SDS011;67983;59.830;30.198;2023-04-26T14:00:28;3.90;;;1.83;;
78666;SDS011;67983;59.830;30.198;2023-04-26T14:02:59;5.07;;;2.40;;
78666;SDS011;67983;59.830;30.198;2023-04-26T14:05:29;6.88;;;2.67;;
78666;SDS011;67983;59.830;30.198;2023-04-26T14:07:57;3.72;;;2.05;;
78666;SDS011;67983;59.830;30.198;2023-04-26T14:10:24;5.00;;;2.65;;
78666;SDS011;67983;59.830;30.198;2023-04-26T14:12:51;6.57;;;2.50;;
78666;SDS011;67983;59.830;30.198;2023-04-26T14:15:19;4.28;;;2.60;;
78666;SDS011;67983;59.830;30.198;2023-04-26T14:17:49;3.28;;;2.13;;
78666;SDS011;67983;59.830;30.198;2023-04-26T14:20:17;4.95;;;2.28;;
78666;SDS011;67983;59.830;30.198;2023-04-26T14:22:45;5.40;;;2.72;;
78666;SDS011;67983;59.830;30.198;2023-04-26T14:25:14;5.47;;;2.50;;
78666;SDS011;67983;59.830;30.198;2023-04-26T14:27:43;4.07;;;2.42;;
78666;SDS011;67983;59.830;30.198;2023-04-26T14:30:10;4.57;;;2.80;;
78666;SDS011;67983;59.830;30.198;2023-04-26T14:32:39;6.20;;;3.28;;
78666;SDS011;67983;59.830;30.198;2023-04-26T14:35:12;7.18;;;2.97;;
78666;SDS011;67983;59.830;30.198;2023-04-26T14:37:39;8.43;;;2.67;;
78666;SDS011;67983;59.830;30.198;2023-04-26T14:40:14;2.58;;;2.10;;
78666;SDS011;67983;59.830;30.198;2023-04-26T14:42:42;6.22;;;2.42;;
78666;SDS011;67983;59.830;30.198;2023-04-26T14:45:10;5.20;;;2.30;;
78666;SDS011;67983;59.830;30.198;2023-04-26T14:47:38;8.15;;;2.75;;
78666;SDS011;67983;59.830;30.198;2023-04-26T14:50:06;3.95;;;2.08;;
78666;SDS011;67983;59.830;30.198;2023-04-26T14:52:37;6.68;;;2.83;;
78666;SDS011;67983;59.830;30.198;2023-04-26T14:55:04;6.53;;;2.50;;
78666;SDS011;67983;59.830;30.198;2023-04-26T14:57:35;6.05;;;3.20;;
78666;SDS011;67983;59.830;30.198;2023-04-26T15:00:09;6.75;;;3.20;;
78666;SDS011;67983;59.830;30.198;2023-04-26T15:02:40;6.15;;;3.10;;
78666;SDS011;67983;59.830;30.198;2023-04-26T15:08:03;11.50;;;4.30;;
78666;SDS011;67983;59.830;30.198;2023-04-26T15:10:32;10.25;;;4.10;;
78666;SDS011;67983;59.830;30.198;2023-04-26T15:12:59;13.23;;;3.67;;